Time,TemperatureF,DewpointF,PressureIn,WindDirection,WindDirectionDegrees,WindSpeedMPH,WindSpeedGustMPH,Humidity,HourlyPrecipIn,Conditions,Clouds,dailyrainin,SoftwareType,DateUTC
2013-05-24 00:02:00,69.1,65.3,29.95,NNE,22,3.1,-999.0,88,0.00,Rainy,,0.00,Open2300\PHP-WU,2013-05-24 04:02:00,
2013-05-24 00:04:00,69.3,65.5,29.95,North,0,0.0,-999.0,88,0.00,Rainy,,0.00,Open2300\PHP-WU,2013-05-24 04:04:00,
2013-05-24 00:08:00,69.3,65.2,29.95,WNW,292,3.4,-999.0,87,0.00,Rainy,,0.00,Open2300\PHP-WU,2013-05-24 04:08:00,
2013-05-24 00:13:00,68.5,63.8,29.95,NE,45,0.0,-999.0,85,0.02,Rainy,,0.02,Open2300\PHP-WU,2013-05-24 04:13:00,
2013-05-24 00:18:00,67.6,63.0,29.94,NNE,22,2.2,-999.0,85,0.04,Rainy,,0.04,Open2300\PHP-WU,2013-05-24 04:18:00,
2013-05-24 00:23:00,66.7,62.1,29.94,North,0,0.0,-999.0,85,0.06,Rainy,,0.06,Open2300\PHP-WU,2013-05-24 04:23:00,
2013-05-24 00:29:00,65.8,61.2,29.94,North,0,0.0,-999.0,85,0.08,Rainy,,0.08,Open2300\PHP-WU,2013-05-24 04:29:00,
2013-05-24 00:35:00,65.3,61.0,29.94,North,0,0.0,-999.0,86,0.08,Rainy,,0.08,Open2300\PHP-WU,2013-05-24 04:35:00,
2013-05-24 00:42:00,64.9,60.7,29.94,North,0,0.0,-999.0,86,0.08,Rainy,,0.08,Open2300\PHP-WU,2013-05-24 04:42:00,
2013-05-24 00:47:00,64.6,60.7,29.94,North,0,0.0,-999.0,87,0.08,Rainy,,0.08,Open2300\PHP-WU,2013-05-24 04:47:00,
2013-05-24 00:53:00,64.2,60.0,29.94,NNE,22,0.0,-999.0,86,0.08,Rainy,,0.08,Open2300\PHP-WU,2013-05-24 04:53:00,
2013-05-24 01:01:00,64.2,60.3,29.94,NNE,22,0.0,-999.0,87,0.08,Rainy,,0.08,Open2300\PHP-WU,2013-05-24 05:01:00,
2013-05-24 01:07:00,64.0,60.1,29.94,North,0,0.0,-999.0,87,0.08,Rainy,,0.08,Open2300\PHP-WU,2013-05-24 05:07:00,
2013-05-24 01:13:00,63.9,60.0,29.93,North,0,0.0,-999.0,87,0.04,Rainy,,0.08,Open2300\PHP-WU,2013-05-24 05:13:00,
2013-05-24 01:19:00,63.5,59.9,29.92,North,0,0.0,-999.0,88,0.02,Rainy,,0.08,Open2300\PHP-WU,2013-05-24 05:19:00,
2013-05-24 01:25:00,63.1,59.2,29.92,North,0,0.0,-999.0,87,0.00,Rainy,,0.08,Open2300\PHP-WU,2013-05-24 05:25:00,
2013-05-24 01:31:00,63.0,59.4,29.92,North,0,0.0,-999.0,88,0.00,Rainy,,0.08,Open2300\PHP-WU,2013-05-24 05:31:00,
2013-05-24 01:37:00,62.8,59.2,29.92,North,0,0.0,-999.0,88,0.00,Rainy,,0.08,Open2300\PHP-WU,2013-05-24 05:37:00,
2013-05-24 01:43:00,62.4,58.9,29.92,North,0,0.0,-999.0,88,0.00,Rainy,,0.08,Open2300\PHP-WU,2013-05-24 05:43:00,
2013-05-24 01:49:00,62.4,58.9,29.92,North,0,0.0,-999.0,88,0.00,Rainy,,0.08,Open2300\PHP-WU,2013-05-24 05:49:00,
2013-05-24 01:55:00,62.2,58.7,29.91,North,0,0.0,-999.0,88,0.00,Rainy,,0.08,Open2300\PHP-WU,2013-05-24 05:55:00,
2013-05-24 02:01:00,62.1,58.5,29.91,North,0,0.0,-999.0,88,0.00,Rainy,,0.08,Open2300\PHP-WU,2013-05-24 06:01:00,
2013-05-24 02:07:00,61.7,58.2,29.91,North,0,0.0,-999.0,88,0.00,Rainy,,0.08,Open2300\PHP-WU,2013-05-24 06:07:00,
2013-05-24 02:13:00,61.9,58.3,29.91,North,0,0.0,-999.0,88,0.00,Rainy,,0.08,Open2300\PHP-WU,2013-05-24 06:13:00,
2013-05-24 02:19:00,61.5,58.0,29.90,North,0,0.0,-999.0,88,0.00,Rainy,,0.08,Open2300\PHP-WU,2013-05-24 06:19:00,
2013-05-24 02:25:00,61.5,58.0,29.90,North,0,0.0,-999.0,88,0.00,Rainy,,0.08,Open2300\PHP-WU,2013-05-24 06:25:00,
2013-05-24 02:31:00,61.7,58.2,29.90,North,0,0.0,-999.0,88,0.00,Rainy,,0.08,Open2300\PHP-WU,2013-05-24 06:31:00,
2013-05-24 02:37:00,61.5,58.0,29.91,North,0,0.0,-999.0,88,0.00,Rainy,,0.08,Open2300\PHP-WU,2013-05-24 06:37:00,
2013-05-24 02:43:00,61.7,58.5,29.91,North,0,0.0,-999.0,89,0.00,Rainy,,0.08,Open2300\PHP-WU,2013-05-24 06:43:00,
2013-05-24 02:49:00,62.1,58.8,29.91,North,0,0.0,-999.0,89,0.00,Rainy,,0.08,Open2300\PHP-WU,2013-05-24 06:49:00,
2013-05-24 02:55:00,62.2,59.0,29.91,NNE,22,0.0,-999.0,89,0.00,Rainy,,0.08,Open2300\PHP-WU,2013-05-24 06:55:00,
2013-05-24 03:01:00,62.4,59.2,29.91,NNE,22,0.0,-999.0,89,0.00,Rainy,,0.08,Open2300\PHP-WU,2013-05-24 07:01:00,
2013-05-24 03:07:00,63.1,59.9,29.90,NNE,22,0.0,-999.0,89,0.00,Rainy,,0.08,Open2300\PHP-WU,2013-05-24 07:07:00,
2013-05-24 03:13:00,63.3,60.1,29.90,NNE,22,0.0,-999.0,89,0.00,Rainy,,0.08,Open2300\PHP-WU,2013-05-24 07:13:00,
2013-05-24 03:19:00,63.3,60.1,29.90,North,0,0.0,-999.0,89,0.00,Rainy,,0.08,Open2300\PHP-WU,2013-05-24 07:19:00,
2013-05-24 03:25:00,63.3,60.1,29.90,NNE,22,0.0,-999.0,89,0.00,Rainy,,0.08,Open2300\PHP-WU,2013-05-24 07:25:00,
2013-05-24 03:31:00,63.3,60.1,29.90,NNE,22,0.0,-999.0,89,0.00,Rainy,,0.08,Open2300\PHP-WU,2013-05-24 07:31:00,
2013-05-24 03:37:00,63.1,59.9,29.90,NNE,22,0.0,-999.0,89,0.00,Rainy,,0.08,Open2300\PHP-WU,2013-05-24 07:37:00,
2013-05-24 03:43:00,62.8,59.6,29.90,NNE,22,0.0,-999.0,89,0.00,Rainy,,0.08,Open2300\PHP-WU,2013-05-24 07:43:00,
2013-05-24 03:49:00,62.4,59.2,29.90,NNE,22,0.0,-999.0,89,0.00,Rainy,,0.08,Open2300\PHP-WU,2013-05-24 07:49:00,
2013-05-24 03:55:00,62.4,59.2,29.90,NNE,22,0.0,-999.0,89,0.00,Rainy,,0.08,Open2300\PHP-WU,2013-05-24 07:55:00,
2013-05-24 04:01:00,62.4,59.2,29.90,NNE,22,0.0,-999.0,89,0.00,Rainy,,0.08,Open2300\PHP-WU,2013-05-24 08:01:00,
2013-05-24 04:07:00,62.2,59.0,29.90,NNE,22,0.0,-999.0,89,0.00,Rainy,,0.08,Open2300\PHP-WU,2013-05-24 08:07:00,
2013-05-24 04:13:00,62.4,59.2,29.90,NNE,22,0.0,-999.0,89,0.00,Rainy,,0.08,Open2300\PHP-WU,2013-05-24 08:13:00,
2013-05-24 04:19:00,62.4,59.2,29.90,NNE,22,0.0,-999.0,89,0.00,Rainy,,0.08,Open2300\PHP-WU,2013-05-24 08:19:00,
2013-05-24 04:25:00,62.4,59.2,29.90,NNE,22,0.0,-999.0,89,0.00,Rainy,,0.08,Open2300\PHP-WU,2013-05-24 08:25:00,
2013-05-24 04:31:00,62.8,59.6,29.90,North,0,0.0,-999.0,89,0.00,Rainy,,0.08,Open2300\PHP-WU,2013-05-24 08:31:00,
2013-05-24 04:37:00,62.8,59.6,29.91,North,0,0.0,-999.0,89,0.00,Rainy,,0.08,Open2300\PHP-WU,2013-05-24 08:37:00,
2013-05-24 04:43:00,62.8,59.6,29.91,North,0,0.0,-999.0,89,0.00,Rainy,,0.08,Open2300\PHP-WU,2013-05-24 08:43:00,
2013-05-24 04:49:00,62.8,59.6,29.91,NNE,22,0.0,-999.0,89,0.00,Rainy,,0.08,Open2300\PHP-WU,2013-05-24 08:49:00,
2013-05-24 04:55:00,62.8,59.6,29.90,NNE,22,0.0,-999.0,89,0.00,Rainy,,0.08,Open2300\PHP-WU,2013-05-24 08:55:00,
2013-05-24 05:01:00,62.8,59.6,29.91,NNE,22,0.0,-999.0,89,0.00,Rainy,,0.08,Open2300\PHP-WU,2013-05-24 09:01:00,
2013-05-24 05:07:00,62.4,59.2,29.91,NNE,22,0.0,-999.0,89,0.00,Rainy,,0.08,Open2300\PHP-WU,2013-05-24 09:07:00,
2013-05-24 05:13:00,62.2,59.0,29.91,NNE,22,0.0,-999.0,89,0.00,Rainy,,0.08,Open2300\PHP-WU,2013-05-24 09:13:00,
2013-05-24 05:19:00,62.1,58.8,29.91,NNE,22,0.0,-999.0,89,0.00,Rainy,,0.08,Open2300\PHP-WU,2013-05-24 09:19:00,
2013-05-24 05:25:00,62.1,58.8,29.91,NNE,22,0.0,-999.0,89,0.00,Rainy,,0.08,Open2300\PHP-WU,2013-05-24 09:25:00,
2013-05-24 05:31:00,62.1,58.8,29.91,NNE,22,0.0,-999.0,89,0.00,Rainy,,0.08,Open2300\PHP-WU,2013-05-24 09:31:00,
2013-05-24 05:37:00,62.1,58.8,29.91,NNE,22,0.0,-999.0,89,0.00,Rainy,,0.08,Open2300\PHP-WU,2013-05-24 09:37:00,
2013-05-24 05:43:00,62.2,59.0,29.91,NNE,22,0.0,-999.0,89,0.00,Rainy,,0.08,Open2300\PHP-WU,2013-05-24 09:43:00,
2013-05-24 05:49:00,62.1,58.8,29.91,NNE,22,0.0,-999.0,89,0.00,Rainy,,0.08,Open2300\PHP-WU,2013-05-24 09:49:00,
2013-05-24 05:55:00,62.1,58.8,29.91,NNE,22,0.0,-999.0,89,0.00,Rainy,,0.08,Open2300\PHP-WU,2013-05-24 09:55:00,
2013-05-24 06:01:00,61.9,58.7,29.91,NNE,22,0.0,-999.0,89,0.00,Rainy,,0.08,Open2300\PHP-WU,2013-05-24 10:01:00,
2013-05-24 06:07:00,61.9,58.7,29.92,North,0,0.0,-999.0,89,0.00,Rainy,,0.08,Open2300\PHP-WU,2013-05-24 10:07:00,
2013-05-24 06:13:00,61.9,58.7,29.92,NNE,22,0.0,-999.0,89,0.00,Rainy,,0.08,Open2300\PHP-WU,2013-05-24 10:13:00,
2013-05-24 06:19:00,62.1,58.8,29.92,NNE,22,0.0,-999.0,89,0.00,Rainy,,0.08,Open2300\PHP-WU,2013-05-24 10:19:00,
2013-05-24 06:25:00,62.1,58.8,29.94,NNE,22,0.0,-999.0,89,0.00,Rainy,,0.08,Open2300\PHP-WU,2013-05-24 10:25:00,
2013-05-24 06:31:00,62.1,58.8,29.93,North,0,0.0,-999.0,89,0.00,Rainy,,0.08,Open2300\PHP-WU,2013-05-24 10:31:00,
2013-05-24 06:37:00,62.2,59.0,29.94,North,0,0.0,-999.0,89,0.00,Rainy,,0.08,Open2300\PHP-WU,2013-05-24 10:37:00,
2013-05-24 06:43:00,62.2,59.0,29.94,North,0,0.0,-999.0,89,0.00,Rainy,,0.08,Open2300\PHP-WU,2013-05-24 10:43:00,
2013-05-24 06:49:00,62.4,59.2,29.94,North,0,0.0,-999.0,89,0.00,Rainy,,0.08,Open2300\PHP-WU,2013-05-24 10:49:00,
2013-05-24 06:55:00,62.4,59.2,29.94,North,0,0.0,-999.0,89,0.00,Rainy,,0.08,Open2300\PHP-WU,2013-05-24 10:55:00,
2013-05-24 07:01:00,62.4,59.2,29.94,North,0,0.0,-999.0,89,0.00,Rainy,,0.08,Open2300\PHP-WU,2013-05-24 11:01:00,
2013-05-24 07:07:00,62.4,58.9,29.94,North,0,0.0,-999.0,88,0.00,Rainy,,0.08,Open2300\PHP-WU,2013-05-24 11:07:00,
2013-05-24 07:13:00,62.2,58.7,29.94,North,0,0.0,-999.0,88,0.00,Rainy,,0.08,Open2300\PHP-WU,2013-05-24 11:13:00,
2013-05-24 07:19:00,62.1,58.5,29.95,North,0,0.0,-999.0,88,0.00,Rainy,,0.08,Open2300\PHP-WU,2013-05-24 11:19:00,
2013-05-24 07:25:00,62.2,58.7,29.94,WNW,292,0.0,-999.0,88,0.00,Rainy,,0.08,Open2300\PHP-WU,2013-05-24 11:25:00,
2013-05-24 07:32:00,62.6,59.0,29.94,NNW,337,0.0,-999.0,88,0.00,Rainy,,0.08,Open2300\PHP-WU,2013-05-24 11:32:00,
2013-05-24 07:38:00,63.1,59.6,29.95,NNE,22,0.0,-999.0,88,0.00,Rainy,,0.08,Open2300\PHP-WU,2013-05-24 11:38:00,
2013-05-24 07:44:00,63.5,59.6,29.95,West,270,0.0,-999.0,87,0.00,Rainy,,0.08,Open2300\PHP-WU,2013-05-24 11:44:00,
2013-05-24 07:50:00,63.7,59.4,29.95,North,0,0.0,-999.0,86,0.00,Rainy,,0.08,Open2300\PHP-WU,2013-05-24 11:50:00,
2013-05-24 07:56:00,64.0,59.8,29.95,NNE,22,0.0,-999.0,86,0.00,Rainy,,0.08,Open2300\PHP-WU,2013-05-24 11:56:00,
2013-05-24 08:02:00,64.2,59.6,29.95,NNE,22,0.0,-999.0,85,0.00,Rainy,,0.08,Open2300\PHP-WU,2013-05-24 12:02:00,
2013-05-24 08:08:00,64.6,60.0,29.95,WNW,292,0.0,-999.0,85,0.00,Rainy,,0.08,Open2300\PHP-WU,2013-05-24 12:08:00,
2013-05-24 08:14:00,65.1,60.2,29.95,NNE,22,0.0,-999.0,84,0.00,Rainy,,0.08,Open2300\PHP-WU,2013-05-24 12:14:00,
2013-05-24 08:20:00,65.1,59.8,29.96,NNW,337,0.0,-999.0,83,0.00,Rainy,,0.08,Open2300\PHP-WU,2013-05-24 12:20:00,
2013-05-24 08:26:00,65.1,59.5,29.96,NNW,337,2.2,-999.0,82,0.00,Rainy,,0.08,Open2300\PHP-WU,2013-05-24 12:26:00,
2013-05-24 08:32:00,64.9,59.3,29.96,WNW,292,0.0,-999.0,82,0.00,Rainy,,0.08,Open2300\PHP-WU,2013-05-24 12:32:00,
2013-05-24 08:38:00,64.6,58.9,29.96,NNW,337,0.0,-999.0,82,0.00,Rainy,,0.08,Open2300\PHP-WU,2013-05-24 12:38:00,
2013-05-24 08:44:00,64.6,58.6,29.96,NNE,22,0.0,-999.0,81,0.00,Rainy,,0.08,Open2300\PHP-WU,2013-05-24 12:44:00,
2013-05-24 08:50:00,64.2,58.3,29.97,North,0,0.0,-999.0,81,0.00,Rainy,,0.08,Open2300\PHP-WU,2013-05-24 12:50:00,
2013-05-24 08:56:00,64.2,58.3,29.97,NNE,22,0.0,-999.0,81,0.00,Rainy,,0.08,Open2300\PHP-WU,2013-05-24 12:56:00,
2013-05-24 09:02:00,64.2,58.3,29.97,North,0,0.0,-999.0,81,0.00,Rainy,,0.08,Open2300\PHP-WU,2013-05-24 13:02:00,
2013-05-24 09:08:00,64.6,58.3,29.97,NNE,22,0.0,-999.0,80,0.00,Rainy,,0.08,Open2300\PHP-WU,2013-05-24 13:08:00,
2013-05-24 09:14:00,64.9,58.3,29.98,NNE,22,0.0,-999.0,79,0.00,Rainy,,0.08,Open2300\PHP-WU,2013-05-24 13:14:00,
2013-05-24 09:20:00,65.3,58.6,29.98,NNE,22,0.0,-999.0,79,0.00,Rainy,,0.08,Open2300\PHP-WU,2013-05-24 13:20:00,
2013-05-24 09:26:00,67.8,60.4,29.98,West,270,0.0,-999.0,77,0.00,Rainy,,0.08,Open2300\PHP-WU,2013-05-24 13:26:00,
2013-05-24 09:32:00,68.9,61.0,29.99,NNW,337,0.0,-999.0,76,0.00,Rainy,,0.08,Open2300\PHP-WU,2013-05-24 13:32:00,
2013-05-24 09:38:00,69.3,60.6,29.99,North,0,0.0,-999.0,74,0.00,Rainy,,0.08,Open2300\PHP-WU,2013-05-24 13:38:00,
2013-05-24 09:44:00,69.6,60.1,29.99,North,0,0.0,-999.0,72,0.02,Rainy,,0.10,Open2300\PHP-WU,2013-05-24 13:44:00,
2013-05-24 09:50:00,70.0,60.1,29.99,North,0,4.0,-999.0,71,0.02,Rainy,,0.10,Open2300\PHP-WU,2013-05-24 13:50:00,
2013-05-24 09:56:00,69.8,59.5,29.99,NE,45,0.0,-999.0,70,0.02,Rainy,,0.10,Open2300\PHP-WU,2013-05-24 13:56:00,
2013-05-24 10:02:00,70.0,59.7,29.99,North,0,0.0,-999.0,70,0.02,Rainy,,0.10,Open2300\PHP-WU,2013-05-24 14:02:00,
2013-05-24 10:08:00,70.3,60.1,30.00,NNE,22,0.0,-999.0,70,0.02,Rainy,,0.10,Open2300\PHP-WU,2013-05-24 14:08:00,
2013-05-24 10:14:00,70.0,58.5,30.00,NW,315,0.0,-999.0,67,0.02,Rainy,,0.10,Open2300\PHP-WU,2013-05-24 14:14:00,
2013-05-24 10:20:00,69.4,58.0,30.01,NNE,22,0.0,-999.0,67,0.02,Rainy,,0.10,Open2300\PHP-WU,2013-05-24 14:20:00,
2013-05-24 10:26:00,69.6,58.9,30.02,NNE,22,0.0,-999.0,69,0.02,Rainy,,0.10,Open2300\PHP-WU,2013-05-24 14:26:00,
2013-05-24 10:32:00,69.6,58.5,30.02,North,0,0.0,-999.0,68,0.02,Rainy,,0.10,Open2300\PHP-WU,2013-05-24 14:32:00,
2013-05-24 10:38:00,69.6,58.5,30.02,NNE,22,0.0,-999.0,68,0.02,Rainy,,0.10,Open2300\PHP-WU,2013-05-24 14:38:00,
2013-05-24 10:44:00,70.0,58.9,30.02,NNW,337,0.0,-999.0,68,0.00,Rainy,,0.10,Open2300\PHP-WU,2013-05-24 14:44:00,
2013-05-24 10:50:00,70.3,58.8,30.02,NE,45,0.0,-999.0,67,0.00,Rainy,,0.10,Open2300\PHP-WU,2013-05-24 14:50:00,
2013-05-24 10:56:00,70.7,58.7,30.03,North,0,0.0,-999.0,66,0.00,Rainy,,0.10,Open2300\PHP-WU,2013-05-24 14:56:00,
2013-05-24 11:02:00,70.3,58.0,30.03,NE,45,0.0,-999.0,65,0.00,Rainy,,0.10,Open2300\PHP-WU,2013-05-24 15:02:00,
2013-05-24 11:08:00,69.6,57.7,30.04,West,270,0.0,-999.0,66,0.00,Rainy,,0.10,Open2300\PHP-WU,2013-05-24 15:08:00,
2013-05-24 11:14:00,69.4,57.1,30.04,NE,45,0.0,-999.0,65,0.00,Rainy,,0.10,Open2300\PHP-WU,2013-05-24 15:14:00,
2013-05-24 11:20:00,69.4,57.5,30.04,NNE,22,0.0,-999.0,66,0.00,Rainy,,0.10,Open2300\PHP-WU,2013-05-24 15:20:00,
2013-05-24 11:26:00,69.6,57.3,30.04,SSW,202,1.3,-999.0,65,0.00,Rainy,,0.10,Open2300\PHP-WU,2013-05-24 15:26:00,
2013-05-24 11:32:00,69.4,57.1,30.04,NNW,337,0.0,-999.0,65,0.00,Rainy,,0.10,Open2300\PHP-WU,2013-05-24 15:32:00,
2013-05-24 11:38:00,70.0,57.6,30.04,North,0,0.0,-999.0,65,0.00,Rainy,,0.10,Open2300\PHP-WU,2013-05-24 15:38:00,
2013-05-24 11:44:00,70.9,58.1,30.04,NNW,337,0.0,-999.0,64,0.00,Rainy,,0.10,Open2300\PHP-WU,2013-05-24 15:44:00,
2013-05-24 11:50:00,70.9,57.2,30.05,NW,315,0.0,-999.0,62,0.00,Rainy,,0.10,Open2300\PHP-WU,2013-05-24 15:50:00,
2013-05-24 11:55:00,70.5,56.9,30.05,North,0,2.5,-999.0,62,0.00,Rainy,,0.10,Open2300\PHP-WU,2013-05-24 15:55:00,
2013-05-24 12:01:00,70.7,56.6,30.05,NE,45,0.0,-999.0,61,0.00,Rainy,,0.10,Open2300\PHP-WU,2013-05-24 16:01:00,
2013-05-24 12:08:00,70.5,55.5,30.06,NNE,22,2.5,-999.0,59,0.00,Rainy,,0.10,Open2300\PHP-WU,2013-05-24 16:08:00,
2013-05-24 12:14:00,69.6,54.2,30.07,NNE,22,0.0,-999.0,58,0.00,Rainy,,0.10,Open2300\PHP-WU,2013-05-24 16:14:00,
2013-05-24 12:19:00,69.6,54.7,30.07,NNW,337,0.0,-999.0,59,0.00,Rainy,,0.10,Open2300\PHP-WU,2013-05-24 16:19:00,
2013-05-24 12:26:00,69.4,54.5,30.07,North,0,0.0,-999.0,59,0.00,Rainy,,0.10,Open2300\PHP-WU,2013-05-24 16:26:00,
2013-05-24 12:32:00,69.4,55.0,30.07,WSW,247,0.0,-999.0,60,0.00,Rainy,,0.10,Open2300\PHP-WU,2013-05-24 16:32:00,
2013-05-24 12:37:00,68.7,53.3,30.07,NE,45,0.0,-999.0,58,0.00,Rainy,,0.10,Open2300\PHP-WU,2013-05-24 16:37:00,
2013-05-24 12:43:00,68.2,50.8,30.07,NW,315,0.0,-999.0,54,0.00,Rainy,,0.10,Open2300\PHP-WU,2013-05-24 16:43:00,
2013-05-24 12:50:00,68.9,52.0,30.07,NE,45,0.0,-999.0,55,0.00,Rainy,,0.10,Open2300\PHP-WU,2013-05-24 16:50:00,
2013-05-24 12:55:00,68.7,51.9,30.07,North,0,0.0,-999.0,55,0.00,Rainy,,0.10,Open2300\PHP-WU,2013-05-24 16:55:00,
2013-05-24 13:02:00,69.1,52.2,30.07,WSW,247,0.0,-999.0,55,0.00,Rainy,,0.10,Open2300\PHP-WU,2013-05-24 17:02:00,
2013-05-24 13:07:00,70.0,52.5,30.07,WSW,247,0.0,-999.0,54,0.00,Rainy,,0.10,Open2300\PHP-WU,2013-05-24 17:07:00,
2013-05-24 13:13:00,69.1,52.2,30.07,NNE,22,6.0,-999.0,55,0.00,Rainy,,0.10,Open2300\PHP-WU,2013-05-24 17:13:00,
2013-05-24 13:19:00,69.6,53.2,30.07,NNW,337,0.0,-999.0,56,0.00,Rainy,,0.10,Open2300\PHP-WU,2013-05-24 17:19:00,
2013-05-24 13:25:00,69.1,52.7,30.07,North,0,0.0,-999.0,56,0.00,Rainy,,0.10,Open2300\PHP-WU,2013-05-24 17:25:00,
2013-05-24 13:31:00,69.1,53.2,30.07,WSW,247,0.0,-999.0,57,0.00,Rainy,,0.10,Open2300\PHP-WU,2013-05-24 17:31:00,
2013-05-24 13:38:00,70.3,53.4,30.08,NNW,337,0.0,-999.0,55,0.00,Rainy,,0.10,Open2300\PHP-WU,2013-05-24 17:38:00,
2013-05-24 13:43:00,70.2,51.7,30.07,WSW,247,7.2,-999.0,52,0.00,Rainy,,0.10,Open2300\PHP-WU,2013-05-24 17:43:00,
2013-05-24 13:49:00,70.0,52.0,30.08,WSW,247,2.7,-999.0,53,0.00,Rainy,,0.10,Open2300\PHP-WU,2013-05-24 17:49:00,
2013-05-24 13:55:00,70.2,51.7,30.08,WSW,247,0.0,-999.0,52,0.00,Rainy,,0.10,Open2300\PHP-WU,2013-05-24 17:55:00,
2013-05-24 14:01:00,70.2,51.2,30.08,WSW,247,0.0,-999.0,51,0.00,Rainy,,0.10,Open2300\PHP-WU,2013-05-24 18:01:00,
2013-05-24 14:07:00,70.0,51.0,30.08,WSW,247,0.0,-999.0,51,0.00,Rainy,,0.10,Open2300\PHP-WU,2013-05-24 18:07:00,
2013-05-24 14:13:00,70.3,50.8,30.08,WSW,247,0.0,-999.0,50,0.00,Rainy,,0.10,Open2300\PHP-WU,2013-05-24 18:13:00,
2013-05-24 14:19:00,70.0,50.5,30.08,WSW,247,0.0,-999.0,50,0.00,Rainy,,0.10,Open2300\PHP-WU,2013-05-24 18:19:00,
2013-05-24 14:25:00,69.3,49.3,30.09,WSW,247,1.8,-999.0,49,0.00,Rainy,,0.10,Open2300\PHP-WU,2013-05-24 18:25:00,
2013-05-24 14:31:00,69.3,48.1,30.09,WSW,247,0.0,-999.0,47,0.00,Rainy,,0.10,Open2300\PHP-WU,2013-05-24 18:31:00,
2013-05-24 14:37:00,69.1,47.9,30.09,WSW,247,0.0,-999.0,47,0.00,Rainy,,0.10,Open2300\PHP-WU,2013-05-24 18:37:00,
2013-05-24 14:43:00,69.8,49.2,30.09,WSW,247,1.3,-999.0,48,0.00,Rainy,,0.10,Open2300\PHP-WU,2013-05-24 18:43:00,
2013-05-24 14:49:00,69.8,48.0,30.09,WSW,247,4.3,-999.0,46,0.00,Rainy,,0.10,Open2300\PHP-WU,2013-05-24 18:49:00,
2013-05-24 14:55:00,69.6,47.2,30.09,WSW,247,13.4,-999.0,45,0.00,Rainy,,0.10,Open2300\PHP-WU,2013-05-24 18:55:00,
2013-05-24 15:01:00,69.6,47.8,30.09,WSW,247,0.0,-999.0,46,0.00,Rainy,,0.10,Open2300\PHP-WU,2013-05-24 19:01:00,
2013-05-24 15:07:00,70.5,49.8,30.10,WSW,247,0.0,-999.0,48,0.00,Rainy,,0.10,Open2300\PHP-WU,2013-05-24 19:07:00,
2013-05-24 15:13:00,70.9,49.0,30.09,WSW,247,0.0,-999.0,46,0.00,Rainy,,0.10,Open2300\PHP-WU,2013-05-24 19:13:00,
2013-05-24 15:19:00,70.5,48.0,30.09,WSW,247,4.3,-999.0,45,0.00,Rainy,,0.10,Open2300\PHP-WU,2013-05-24 19:19:00,
2013-05-24 15:25:00,69.8,48.0,30.10,NE,45,5.4,-999.0,46,0.00,Rainy,,0.10,Open2300\PHP-WU,2013-05-24 19:25:00,
2013-05-24 15:31:00,69.1,46.7,30.10,WSW,247,0.0,-999.0,45,0.00,Rainy,,0.10,Open2300\PHP-WU,2013-05-24 19:31:00,
2013-05-24 15:37:00,70.0,47.6,30.10,WSW,247,0.0,-999.0,45,0.00,Rainy,,0.10,Open2300\PHP-WU,2013-05-24 19:37:00,
2013-05-24 15:43:00,70.3,46.7,30.10,WSW,247,4.3,-999.0,43,0.00,Cloudy,,0.10,Open2300\PHP-WU,2013-05-24 19:43:00,
2013-05-24 15:49:00,70.0,47.0,30.11,WSW,247,4.9,-999.0,44,0.00,Cloudy,,0.10,Open2300\PHP-WU,2013-05-24 19:49:00,
2013-05-24 15:55:00,70.5,46.9,30.11,WSW,247,0.0,-999.0,43,0.00,Cloudy,,0.10,Open2300\PHP-WU,2013-05-24 19:55:00,
2013-05-24 16:01:00,70.3,47.3,30.11,WSW,247,0.0,-999.0,44,0.00,Cloudy,,0.10,Open2300\PHP-WU,2013-05-24 20:01:00,
2013-05-24 16:07:00,70.3,46.7,30.11,WSW,247,5.4,-999.0,43,0.00,Cloudy,,0.10,Open2300\PHP-WU,2013-05-24 20:07:00,
2013-05-24 16:13:00,69.4,45.9,30.11,WSW,247,0.0,-999.0,43,0.00,Cloudy,,0.10,Open2300\PHP-WU,2013-05-24 20:13:00,
2013-05-24 16:19:00,69.4,45.3,30.12,WSW,247,3.4,-999.0,42,0.00,Cloudy,,0.10,Open2300\PHP-WU,2013-05-24 20:19:00,
2013-05-24 16:25:00,69.6,46.0,30.12,WSW,247,0.0,-999.0,43,0.00,Cloudy,,0.10,Open2300\PHP-WU,2013-05-24 20:25:00,
2013-05-24 16:31:00,69.6,44.9,30.12,WSW,247,0.0,-999.0,41,0.00,Cloudy,,0.10,Open2300\PHP-WU,2013-05-24 20:31:00,
2013-05-24 16:37:00,69.1,44.4,30.12,WSW,247,0.0,-999.0,41,0.00,Cloudy,,0.10,Open2300\PHP-WU,2013-05-24 20:37:00,
2013-05-24 16:43:00,68.7,43.4,30.12,WSW,247,0.0,-999.0,40,0.00,Cloudy,,0.10,Open2300\PHP-WU,2013-05-24 20:43:00,
2013-05-24 16:49:00,68.9,43.6,30.12,WSW,247,0.0,-999.0,40,0.00,Cloudy,,0.10,Open2300\PHP-WU,2013-05-24 20:49:00,
2013-05-24 16:55:00,70.2,44.7,30.12,WSW,247,0.0,-999.0,40,0.00,Cloudy,,0.10,Open2300\PHP-WU,2013-05-24 20:55:00,
2013-05-24 17:01:00,69.6,44.3,30.13,WSW,247,0.9,-999.0,40,0.00,Cloudy,,0.10,Open2300\PHP-WU,2013-05-24 21:01:00,
2013-05-24 17:07:00,69.1,43.8,30.13,WSW,247,0.0,-999.0,40,0.00,Cloudy,,0.10,Open2300\PHP-WU,2013-05-24 21:07:00,
2013-05-24 17:13:00,69.1,43.8,30.13,WSW,247,0.0,-999.0,40,0.00,Cloudy,,0.10,Open2300\PHP-WU,2013-05-24 21:13:00,
2013-05-24 17:19:00,68.9,42.9,30.14,WSW,247,6.5,-999.0,39,0.00,Cloudy,,0.10,Open2300\PHP-WU,2013-05-24 21:19:00,
2013-05-24 17:25:00,69.3,43.9,30.14,WSW,247,0.0,-999.0,40,0.00,Cloudy,,0.10,Open2300\PHP-WU,2013-05-24 21:25:00,
2013-05-24 17:31:00,69.4,42.6,30.14,WSW,247,0.0,-999.0,38,0.00,Cloudy,,0.10,Open2300\PHP-WU,2013-05-24 21:31:00,
2013-05-24 17:37:00,68.5,41.1,30.14,WSW,247,2.7,-999.0,37,0.00,Cloudy,,0.10,Open2300\PHP-WU,2013-05-24 21:37:00,
2013-05-24 17:43:00,68.2,40.0,30.14,WSW,247,0.0,-999.0,36,0.00,Cloudy,,0.10,Open2300\PHP-WU,2013-05-24 21:43:00,
2013-05-24 17:49:00,67.8,40.4,30.14,WSW,247,4.0,-999.0,37,0.00,Cloudy,,0.10,Open2300\PHP-WU,2013-05-24 21:49:00,
2013-05-24 17:55:00,67.6,40.3,30.13,WSW,247,4.5,-999.0,37,0.00,Cloudy,,0.10,Open2300\PHP-WU,2013-05-24 21:55:00,
2013-05-24 18:01:00,67.3,40.0,30.13,WSW,247,0.0,-999.0,37,0.00,Cloudy,,0.10,Open2300\PHP-WU,2013-05-24 22:01:00,
2013-05-24 18:07:00,67.3,40.7,30.13,WSW,247,0.0,-999.0,38,0.00,Cloudy,,0.10,Open2300\PHP-WU,2013-05-24 22:07:00,
2013-05-24 18:13:00,67.3,40.0,30.14,WSW,247,0.0,-999.0,37,0.00,Cloudy,,0.10,Open2300\PHP-WU,2013-05-24 22:13:00,
2013-05-24 18:19:00,66.4,39.2,30.14,WSW,247,0.9,-999.0,37,0.00,Cloudy,,0.10,Open2300\PHP-WU,2013-05-24 22:19:00,
2013-05-24 18:25:00,65.1,38.0,30.14,North,0,0.0,-999.0,38,0.00,Cloudy,,0.10,Open2300\PHP-WU,2013-05-24 22:25:00,
2013-05-24 18:31:00,64.2,38.7,30.14,NNE,22,0.0,-999.0,39,0.00,Cloudy,,0.10,Open2300\PHP-WU,2013-05-24 22:31:00,
2013-05-24 18:37:00,64.0,39.2,30.14,North,0,0.0,-999.0,40,0.00,Cloudy,,0.10,Open2300\PHP-WU,2013-05-24 22:37:00,
2013-05-24 18:43:00,63.9,39.1,30.14,SSE,157,0.0,-999.0,40,0.00,Cloudy,,0.10,Open2300\PHP-WU,2013-05-24 22:43:00,
2013-05-24 18:49:00,63.7,38.2,30.15,NE,45,0.0,-999.0,39,0.00,Cloudy,,0.10,Open2300\PHP-WU,2013-05-24 22:49:00,
2013-05-24 18:55:00,63.3,37.9,30.15,NNW,337,0.0,-999.0,39,0.00,Cloudy,,0.10,Open2300\PHP-WU,2013-05-24 22:55:00,
2013-05-24 19:01:00,63.1,37.7,30.15,WSW,247,0.0,-999.0,39,0.00,Cloudy,,0.10,Open2300\PHP-WU,2013-05-24 23:01:00,
2013-05-24 19:07:00,63.0,38.3,30.15,North,0,0.4,-999.0,40,0.00,Cloudy,,0.10,Open2300\PHP-WU,2013-05-24 23:07:00,
2013-05-24 19:13:00,62.8,38.1,30.16,ENE,67,0.0,-999.0,40,0.00,Cloudy,,0.10,Open2300\PHP-WU,2013-05-24 23:13:00,
2013-05-24 19:19:00,62.4,38.4,30.16,NNW,337,0.0,-999.0,41,0.00,Cloudy,,0.10,Open2300\PHP-WU,2013-05-24 23:19:00,
2013-05-24 19:25:00,62.2,37.6,30.17,ESE,112,6.5,-999.0,40,0.00,Cloudy,,0.10,Open2300\PHP-WU,2013-05-24 23:25:00,
2013-05-24 19:32:00,61.7,37.7,30.17,North,0,0.0,-999.0,41,0.00,Cloudy,,0.10,Open2300\PHP-WU,2013-05-24 23:32:00,
2013-05-24 19:38:00,61.7,37.7,30.17,North,0,0.0,-999.0,41,0.00,Cloudy,,0.10,Open2300\PHP-WU,2013-05-24 23:38:00,
2013-05-24 19:44:00,61.3,38.0,30.17,ENE,67,0.0,-999.0,42,0.00,Cloudy,,0.10,Open2300\PHP-WU,2013-05-24 23:44:00,
2013-05-24 19:50:00,60.6,37.9,30.17,NNE,22,0.0,-999.0,43,0.00,Cloudy,,0.10,Open2300\PHP-WU,2013-05-24 23:50:00,
2013-05-24 19:56:00,60.4,37.7,30.18,North,0,0.0,-999.0,43,0.00,Cloudy,,0.10,Open2300\PHP-WU,2013-05-24 23:56:00,
2013-05-24 20:02:00,59.9,37.8,30.18,North,0,0.0,-999.0,44,0.00,Cloudy,,0.10,Open2300\PHP-WU,2013-05-25 00:02:00,
2013-05-24 20:08:00,59.5,38.1,30.18,North,0,0.0,-999.0,45,0.00,Cloudy,,0.10,Open2300\PHP-WU,2013-05-25 00:08:00,
2013-05-24 20:14:00,58.8,38.0,30.18,NE,45,0.0,-999.0,46,0.00,Cloudy,,0.10,Open2300\PHP-WU,2013-05-25 00:14:00,
2013-05-24 20:20:00,58.8,38.0,30.19,NNW,337,0.0,-999.0,46,0.00,Cloudy,,0.10,Open2300\PHP-WU,2013-05-25 00:20:00,
2013-05-24 20:26:00,58.3,38.1,30.19,NNW,337,0.0,-999.0,47,0.00,Cloudy,,0.10,Open2300\PHP-WU,2013-05-25 00:26:00,
2013-05-24 20:32:00,57.7,38.2,30.20,NNW,337,0.0,-999.0,48,0.00,Cloudy,,0.10,Open2300\PHP-WU,2013-05-25 00:32:00,
2013-05-24 20:38:00,57.4,37.9,30.19,NW,315,0.0,-999.0,48,0.00,Cloudy,,0.10,Open2300\PHP-WU,2013-05-25 00:38:00,
2013-05-24 20:44:00,57.0,38.1,30.19,NNW,337,0.0,-999.0,49,0.00,Cloudy,,0.10,Open2300\PHP-WU,2013-05-25 00:44:00,
2013-05-24 20:50:00,56.8,37.9,30.20,NNW,337,0.0,-999.0,49,0.00,Cloudy,,0.10,Open2300\PHP-WU,2013-05-25 00:50:00,
2013-05-24 20:56:00,56.3,37.9,30.20,NNW,337,0.0,-999.0,50,0.00,Cloudy,,0.10,Open2300\PHP-WU,2013-05-25 00:56:00,
2013-05-24 21:02:00,55.9,38.0,30.20,North,0,0.0,-999.0,51,0.00,Cloudy,,0.10,Open2300\PHP-WU,2013-05-25 01:02:00,
2013-05-24 21:08:00,55.4,38.4,30.21,North,0,0.0,-999.0,53,0.00,Cloudy,,0.10,Open2300\PHP-WU,2013-05-25 01:08:00,
2013-05-24 21:14:00,54.5,38.1,30.20,North,0,0.0,-999.0,54,0.00,Cloudy,,0.10,Open2300\PHP-WU,2013-05-25 01:14:00,
2013-05-24 21:20:00,53.8,38.9,30.21,North,0,0.0,-999.0,57,0.00,Cloudy,,0.10,Open2300\PHP-WU,2013-05-25 01:20:00,
2013-05-24 21:26:00,52.9,38.9,30.21,North,0,0.0,-999.0,59,0.00,Cloudy,,0.10,Open2300\PHP-WU,2013-05-25 01:26:00,
2013-05-24 21:32:00,51.8,39.5,30.21,North,0,0.0,-999.0,63,0.00,Cloudy,,0.10,Open2300\PHP-WU,2013-05-25 01:32:00,
2013-05-24 21:38:00,51.4,39.6,30.22,North,0,0.0,-999.0,64,0.00,Cloudy,,0.10,Open2300\PHP-WU,2013-05-25 01:38:00,
2013-05-24 21:44:00,50.5,39.2,30.22,North,0,0.0,-999.0,65,0.00,Cloudy,,0.10,Open2300\PHP-WU,2013-05-25 01:44:00,
2013-05-24 21:50:00,49.8,39.3,30.22,North,0,0.0,-999.0,67,0.00,Cloudy,,0.10,Open2300\PHP-WU,2013-05-25 01:50:00,
2013-05-24 21:56:00,49.1,39.0,30.22,North,0,0.0,-999.0,68,0.00,Cloudy,,0.10,Open2300\PHP-WU,2013-05-25 01:56:00,
2013-05-24 22:02:00,48.7,39.4,30.23,North,0,0.0,-999.0,70,0.00,Sunny,,0.10,Open2300\PHP-WU,2013-05-25 02:02:00,
2013-05-24 22:08:00,48.6,39.9,30.23,North,0,0.0,-999.0,72,0.00,Sunny,,0.10,Open2300\PHP-WU,2013-05-25 02:08:00,
2013-05-24 22:14:00,48.0,39.7,30.23,North,0,0.0,-999.0,73,0.00,Sunny,,0.10,Open2300\PHP-WU,2013-05-25 02:14:00,
2013-05-24 22:20:00,47.8,39.5,30.24,North,0,0.0,-999.0,73,0.00,Sunny,,0.10,Open2300\PHP-WU,2013-05-25 02:20:00,
2013-05-24 22:26:00,47.3,39.4,30.24,North,0,0.0,-999.0,74,0.00,Sunny,,0.10,Open2300\PHP-WU,2013-05-25 02:26:00,
2013-05-24 22:32:00,47.5,39.9,30.24,North,0,0.0,-999.0,75,0.00,Sunny,,0.10,Open2300\PHP-WU,2013-05-25 02:32:00,
2013-05-24 22:38:00,48.0,39.7,30.25,North,0,0.0,-999.0,73,0.00,Sunny,,0.10,Open2300\PHP-WU,2013-05-25 02:38:00,
2013-05-24 22:44:00,49.3,39.5,30.25,North,0,0.0,-999.0,69,0.00,Sunny,,0.10,Open2300\PHP-WU,2013-05-25 02:44:00,
2013-05-24 22:50:00,50.2,39.6,30.25,NW,315,0.0,-999.0,67,0.00,Sunny,,0.10,Open2300\PHP-WU,2013-05-25 02:50:00,
2013-05-24 22:56:00,51.1,40.1,30.25,North,0,0.0,-999.0,66,0.00,Sunny,,0.10,Open2300\PHP-WU,2013-05-25 02:56:00,
2013-05-24 23:02:00,51.4,40.0,30.26,North,0,0.0,-999.0,65,0.00,Sunny,,0.10,Open2300\PHP-WU,2013-05-25 03:02:00,
2013-05-24 23:08:00,51.4,40.0,30.26,NNW,337,0.0,-999.0,65,0.00,Sunny,,0.10,Open2300\PHP-WU,2013-05-25 03:08:00,
2013-05-24 23:13:00,51.4,39.6,30.26,North,0,0.0,-999.0,64,0.00,Sunny,,0.10,Open2300\PHP-WU,2013-05-25 03:13:00,
2013-05-24 23:20:00,51.6,39.4,30.25,North,0,0.0,-999.0,63,0.00,Sunny,,0.10,Open2300\PHP-WU,2013-05-25 03:20:00,
2013-05-24 23:26:00,51.6,39.4,30.26,WSW,247,0.0,-999.0,63,0.00,Sunny,,0.10,Open2300\PHP-WU,2013-05-25 03:26:00,
2013-05-24 23:32:00,51.6,39.4,30.26,NNW,337,0.0,-999.0,63,0.00,Sunny,,0.10,Open2300\PHP-WU,2013-05-25 03:32:00,
2013-05-24 23:38:00,51.4,38.8,30.26,NNE,22,0.0,-999.0,62,0.00,Sunny,,0.10,Open2300\PHP-WU,2013-05-25 03:38:00,
2013-05-24 23:43:00,51.6,38.9,30.26,NNE,22,0.0,-999.0,62,0.00,Sunny,,0.10,Open2300\PHP-WU,2013-05-25 03:43:00,
2013-05-24 23:49:00,51.4,38.8,30.26,NNE,22,0.0,-999.0,62,0.00,Sunny,,0.10,Open2300\PHP-WU,2013-05-25 03:49:00,
2013-05-24 23:55:00,51.1,38.5,30.26,NNE,22,0.0,-999.0,62,0.00,Sunny,,0.10,Open2300\PHP-WU,2013-05-25 03:55:00,